createdAt,value
2023-01-29T00:02:18.400Z,44.30
2023-01-29T00:04:45.566Z,44.23
2023-01-29T00:07:12.670Z,49.30
2023-01-29T00:09:40.130Z,37.20
2023-01-29T00:12:10.566Z,35.13
2023-01-29T00:14:37.611Z,34.47
2023-01-29T00:17:04.663Z,37.23
2023-01-29T00:19:31.678Z,36.33
2023-01-29T00:21:58.677Z,32.90
2023-01-29T00:24:25.771Z,33.57
2023-01-29T00:26:52.798Z,41.27
2023-01-29T00:29:28.069Z,44.20
2023-01-29T00:31:55.083Z,42.77
2023-01-29T00:34:23.495Z,38.80
2023-01-29T00:36:50.553Z,42.53
2023-01-29T00:39:17.482Z,40.00
2023-01-29T00:42:02.805Z,50.00
2023-01-29T00:44:48.199Z,44.20
2023-01-29T00:47:44.452Z,45.23
2023-01-29T00:50:13.008Z,38.63
2023-01-29T00:52:43.023Z,49.57
2023-01-29T00:55:11.404Z,45.93
2023-01-29T00:57:39.154Z,41.07
2023-01-29T01:00:10.933Z,40.70
2023-01-29T01:02:56.530Z,42.77
2023-01-29T01:05:24.171Z,39.43
2023-01-29T01:07:54.278Z,40.23
2023-01-29T01:10:28.687Z,36.70
2023-01-29T01:12:58.466Z,40.53
2023-01-29T01:15:30.319Z,39.73
2023-01-29T01:18:00.697Z,44.43
2023-01-29T01:20:31.259Z,45.53
2023-01-29T01:22:58.377Z,39.87
2023-01-29T01:25:27.319Z,41.27
2023-01-29T01:30:26.498Z,45.23
2023-01-29T01:32:53.651Z,44.23
2023-01-29T01:35:20.766Z,43.70
2023-01-29T01:37:47.763Z,43.20
2023-01-29T01:40:19.517Z,44.30
2023-01-29T01:42:52.504Z,45.40
2023-01-29T01:45:29.191Z,41.03
2023-01-29T01:48:08.975Z,50.83
2023-01-29T01:50:50.915Z,39.97
2023-01-29T01:53:28.678Z,45.20
2023-01-29T01:56:22.958Z,41.83
2023-01-29T01:58:55.376Z,38.03
2023-01-29T02:01:28.975Z,40.90
2023-01-29T02:04:43.013Z,47.40
2023-01-29T02:07:33.367Z,42.27
2023-01-29T02:10:11.429Z,42.27
2023-01-29T02:12:38.904Z,43.33
2023-01-29T02:15:07.056Z,48.83
2023-01-29T02:17:48.285Z,46.83
2023-01-29T02:20:24.511Z,44.37
2023-01-29T02:23:06.316Z,51.20
2023-01-29T02:26:13.599Z,45.70
2023-01-29T02:28:56.237Z,51.20
2023-01-29T02:31:41.719Z,50.93
2023-01-29T02:34:24.609Z,56.53
2023-01-29T02:37:03.776Z,56.40
2023-01-29T02:40:05.599Z,57.50
2023-01-29T02:43:08.722Z,57.77
2023-01-29T02:46:10.959Z,58.77
2023-01-29T02:48:52.785Z,53.23
2023-01-29T02:51:27.163Z,56.20
2023-01-29T02:54:15.109Z,52.77
2023-01-29T02:57:04.617Z,47.30
2023-01-29T02:59:54.256Z,54.37
2023-01-29T03:02:46.407Z,61.63
2023-01-29T03:05:21.926Z,60.47
2023-01-29T03:08:00.446Z,63.10
2023-01-29T03:11:04.722Z,57.07
2023-01-29T03:13:40.953Z,58.67
2023-01-29T03:16:50.548Z,67.10
2023-01-29T03:19:50.697Z,58.67
2023-01-29T03:22:21.961Z,59.63
2023-01-29T03:25:13.673Z,62.50
2023-01-29T03:28:08.386Z,58.97
2023-01-29T03:31:02.370Z,59.30
2023-01-29T03:33:36.216Z,64.33
2023-01-29T03:36:11.989Z,67.00
2023-01-29T03:38:40.050Z,63.13
2023-01-29T03:41:29.766Z,64.50
2023-01-29T03:43:59.500Z,62.33
2023-01-29T03:46:42.099Z,67.73
2023-01-29T03:49:52.971Z,63.13
2023-01-29T03:52:39.000Z,57.40
2023-01-29T03:55:29.211Z,62.87
2023-01-29T03:58:09.020Z,62.30
2023-01-29T04:00:45.982Z,60.57
2023-01-29T04:03:33.732Z,64.00
2023-01-29T04:06:27.752Z,61.07
2023-01-29T04:09:22.111Z,62.00
2023-01-29T04:12:00.165Z,60.80
2023-01-29T04:14:27.220Z,57.40
2023-01-29T04:16:57.914Z,60.43
2023-01-29T04:19:25.559Z,60.80
2023-01-29T04:22:27.012Z,59.23
2023-01-29T04:24:54.641Z,57.17
2023-01-29T04:27:41.467Z,60.23
2023-01-29T04:30:24.448Z,58.73
2023-01-29T04:33:19.061Z,54.80
2023-01-29T04:36:07.221Z,59.40
2023-01-29T04:39:23.920Z,58.07
2023-01-29T04:41:54.972Z,57.37
2023-01-29T04:44:24.568Z,60.67
2023-01-29T04:47:22.573Z,57.20
2023-01-29T04:50:18.992Z,55.90
2023-01-29T04:53:04.590Z,55.83
2023-01-29T04:55:48.687Z,53.27
2023-01-29T04:58:38.867Z,57.80
2023-01-29T05:01:11.583Z,58.50
2023-01-29T05:03:41.369Z,56.23
2023-01-29T05:06:11.032Z,58.67
2023-01-29T05:08:39.763Z,60.27
2023-01-29T05:11:07.472Z,56.67
2023-01-29T05:13:39.599Z,58.50
2023-01-29T05:16:12.255Z,56.90
2023-01-29T05:18:39.245Z,59.73
2023-01-29T05:21:08.556Z,55.73
2023-01-29T05:23:35.762Z,61.77
2023-01-29T05:26:03.547Z,58.77
2023-01-29T05:28:30.763Z,63.07
2023-01-29T05:30:58.589Z,55.90
2023-01-29T05:33:31.365Z,55.97
2023-01-29T05:36:02.384Z,59.60
2023-01-29T05:38:29.341Z,53.87
2023-01-29T05:40:59.504Z,59.97
2023-01-29T05:43:27.172Z,55.73
2023-01-29T05:45:55.856Z,63.37
2023-01-29T05:48:24.003Z,58.23
2023-01-29T05:50:52.267Z,58.37
2023-01-29T05:53:19.604Z,63.73
2023-01-29T05:55:47.976Z,60.50
2023-01-29T05:58:14.994Z,59.27
2023-01-29T06:00:42.725Z,61.47
2023-01-29T06:03:09.776Z,58.70
2023-01-29T06:05:40.270Z,55.27
2023-01-29T06:08:10.295Z,58.47
2023-01-29T06:10:37.617Z,61.17
2023-01-29T06:13:04.708Z,58.53
2023-01-29T06:15:31.829Z,56.17
2023-01-29T06:17:58.831Z,54.83
2023-01-29T06:20:26.256Z,62.63
2023-01-29T06:22:53.208Z,57.53
2023-01-29T06:25:20.291Z,60.07
2023-01-29T06:27:53.068Z,58.53
2023-01-29T06:30:20.261Z,60.97
2023-01-29T06:32:47.271Z,59.53
2023-01-29T06:35:14.396Z,58.43
2023-01-29T06:37:41.426Z,56.77
2023-01-29T06:40:09.537Z,57.63
2023-01-29T06:42:36.753Z,58.37
2023-01-29T06:45:04.632Z,57.73
2023-01-29T06:47:31.675Z,62.47
2023-01-29T06:49:58.742Z,58.33
2023-01-29T06:52:28.931Z,59.57
2023-01-29T06:54:56.732Z,53.47
2023-01-29T06:57:30.715Z,57.23
2023-01-29T06:59:57.736Z,55.13
2023-01-29T07:02:24.689Z,60.73
2023-01-29T07:04:51.619Z,53.23
2023-01-29T07:07:18.661Z,54.37
2023-01-29T07:09:45.636Z,53.03
2023-01-29T07:12:12.663Z,48.70
2023-01-29T07:14:39.641Z,49.93
2023-01-29T07:17:06.758Z,51.67
2023-01-29T07:19:33.762Z,51.43
2023-01-29T07:22:03.195Z,50.37
2023-01-29T07:24:30.399Z,49.83
2023-01-29T07:26:57.670Z,52.80
2023-01-29T07:29:24.673Z,46.93
2023-01-29T07:31:51.775Z,45.47
2023-01-29T07:34:18.986Z,47.43
2023-01-29T07:36:45.932Z,45.40
2023-01-29T07:39:13.205Z,53.23
2023-01-29T07:41:41.330Z,54.00
2023-01-29T07:44:32.107Z,48.63
2023-01-29T07:46:59.033Z,53.83
2023-01-29T07:49:25.943Z,47.60
2023-01-29T07:51:52.900Z,48.00
2023-01-29T07:54:19.875Z,45.63
2023-01-29T07:56:46.990Z,47.33
2023-01-29T07:59:13.990Z,48.83
2023-01-29T08:01:40.910Z,48.57
2023-01-29T08:04:07.973Z,49.77
2023-01-29T08:06:34.908Z,51.87
2023-01-29T08:09:02.947Z,51.40
2023-01-29T08:11:29.971Z,50.17
2023-01-29T08:13:57.338Z,50.87
2023-01-29T08:16:24.488Z,54.80
2023-01-29T08:18:51.505Z,55.00
2023-01-29T08:21:18.481Z,50.27
2023-01-29T08:23:45.749Z,48.93
2023-01-29T08:26:12.707Z,48.73
2023-01-29T08:28:39.850Z,44.47
2023-01-29T08:31:22.416Z,52.40
2023-01-29T08:33:50.057Z,44.90
2023-01-29T08:36:17.082Z,45.10
2023-01-29T08:38:44.077Z,46.23
2023-01-29T08:41:11.043Z,50.47
2023-01-29T08:43:38.653Z,44.90
2023-01-29T08:46:07.543Z,50.83
2023-01-29T08:48:35.243Z,47.87
2023-01-29T08:51:04.557Z,47.40
2023-01-29T08:53:32.650Z,48.33
2023-01-29T08:55:59.625Z,44.93
2023-01-29T08:58:26.892Z,50.33
2023-01-29T09:00:53.859Z,44.43
2023-01-29T09:03:20.903Z,48.67
2023-01-29T09:05:47.938Z,43.83
2023-01-29T09:08:15.596Z,43.77
2023-01-29T09:10:42.569Z,44.23
2023-01-29T09:13:09.488Z,46.23
2023-01-29T09:15:36.452Z,42.20
2023-01-29T09:18:05.087Z,43.33
2023-01-29T09:20:32.551Z,43.23
2023-01-29T09:23:06.997Z,41.97
2023-01-29T09:25:34.269Z,42.27
2023-01-29T09:28:01.382Z,47.87
2023-01-29T09:30:28.623Z,46.23
2023-01-29T09:32:55.631Z,49.03
2023-01-29T09:35:23.664Z,49.07
2023-01-29T09:37:51.831Z,44.47
2023-01-29T09:40:27.436Z,45.23
2023-01-29T09:43:10.684Z,54.20
2023-01-29T09:45:43.625Z,47.47
2023-01-29T09:48:13.333Z,42.23
2023-01-29T09:50:44.312Z,44.67
2023-01-29T09:53:29.989Z,45.67
2023-01-29T09:56:03.144Z,45.87
2023-01-29T09:58:40.954Z,44.63
2023-01-29T10:01:55.501Z,43.40
2023-01-29T10:04:25.371Z,44.47
2023-01-29T10:07:17.791Z,42.87
2023-01-29T10:09:50.935Z,48.57
2023-01-29T10:12:58.258Z,46.30
2023-01-29T10:15:40.423Z,47.17
2023-01-29T10:18:28.398Z,46.17
2023-01-29T10:21:32.797Z,45.93
2023-01-29T10:24:32.595Z,53.70
2023-01-29T10:27:00.997Z,47.57
2023-01-29T10:29:29.052Z,46.20
2023-01-29T10:32:05.563Z,48.80
2023-01-29T10:34:41.020Z,50.50
2023-01-29T10:37:24.308Z,50.93
2023-01-29T10:39:51.803Z,48.83
2023-01-29T10:42:31.141Z,49.33
2023-01-29T10:45:22.814Z,46.27
2023-01-29T10:48:27.760Z,51.90
2023-01-29T10:51:55.317Z,45.47
2023-01-29T10:55:00.635Z,49.47
2023-01-29T10:57:39.660Z,51.87
2023-01-29T11:00:16.774Z,47.23
2023-01-29T11:02:46.447Z,42.67
2023-01-29T11:05:59.304Z,48.87
2023-01-29T11:08:51.445Z,45.37
2023-01-29T11:11:22.374Z,41.33
2023-01-29T11:14:07.257Z,43.37
2023-01-29T11:16:43.478Z,43.73
2023-01-29T11:19:11.532Z,44.43
2023-01-29T11:22:17.264Z,42.37
2023-01-29T11:24:44.723Z,42.13
2023-01-29T11:27:26.561Z,44.77
2023-01-29T11:29:54.319Z,44.67
2023-01-29T11:32:26.402Z,44.10
2023-01-29T11:35:23.035Z,43.53
2023-01-29T11:37:50.106Z,41.07
2023-01-29T11:40:20.076Z,40.73
2023-01-29T11:42:47.537Z,39.50
2023-01-29T11:45:20.685Z,40.43
2023-01-29T11:47:56.422Z,36.07
2023-01-29T11:50:30.932Z,37.77
2023-01-29T11:53:00.334Z,44.17
2023-01-29T11:55:48.196Z,40.50
2023-01-29T11:58:33.281Z,39.90
2023-01-29T12:01:02.068Z,40.53
2023-01-29T12:03:40.679Z,38.27
2023-01-29T12:06:17.916Z,46.37
2023-01-29T12:08:45.069Z,42.80
2023-01-29T12:11:34.502Z,43.40
2023-01-29T12:14:05.061Z,40.47
2023-01-29T12:16:58.777Z,39.77
2023-01-29T12:19:57.246Z,37.80
2023-01-29T12:22:35.916Z,43.77
2023-01-29T12:25:20.874Z,40.73
2023-01-29T12:28:15.849Z,39.60
2023-01-29T12:30:59.316Z,43.63
2023-01-29T12:33:57.201Z,36.67
2023-01-29T12:36:33.446Z,43.03
2023-01-29T12:39:00.659Z,38.47
2023-01-29T12:41:51.630Z,36.77
2023-01-29T12:44:21.737Z,40.90
2023-01-29T12:46:55.093Z,40.43
2023-01-29T12:49:30.620Z,40.73
2023-01-29T12:52:23.266Z,54.37
2023-01-29T12:55:04.033Z,40.63
2023-01-29T12:57:50.998Z,41.80
2023-01-29T13:00:26.023Z,42.80
2023-01-29T13:03:01.766Z,39.03
2023-01-29T13:05:43.114Z,38.73
2023-01-29T13:08:25.424Z,45.33
2023-01-29T13:10:55.220Z,43.00
2023-01-29T13:13:54.038Z,42.43
2023-01-29T13:16:26.572Z,43.53
2023-01-29T13:19:27.988Z,38.10
2023-01-29T13:21:59.378Z,41.30
2023-01-29T13:24:34.833Z,42.30
2023-01-29T13:27:02.597Z,44.53
2023-01-29T13:29:31.222Z,40.63
2023-01-29T13:32:04.722Z,40.10
2023-01-29T13:34:35.946Z,39.47
2023-01-29T13:37:11.706Z,101.23
2023-01-29T13:39:49.700Z,79.43
2023-01-29T13:42:32.083Z,42.77
2023-01-29T13:45:04.386Z,43.57
2023-01-29T13:47:37.932Z,41.07
2023-01-29T13:50:20.153Z,45.33
2023-01-29T13:52:54.968Z,63.07
2023-01-29T13:55:43.618Z,41.80
2023-01-29T13:58:32.571Z,48.17
2023-01-29T14:01:01.486Z,42.53
2023-01-29T14:03:35.913Z,44.70
2023-01-29T14:06:39.212Z,40.77
2023-01-29T14:09:32.910Z,44.30
2023-01-29T14:12:00.218Z,39.73
2023-01-29T14:14:49.142Z,39.77
2023-01-29T14:17:18.156Z,39.17
2023-01-29T14:20:17.511Z,47.57
2023-01-29T14:22:44.783Z,45.40
2023-01-29T14:25:19.895Z,35.57
2023-01-29T14:27:50.358Z,36.70
2023-01-29T14:30:19.332Z,38.03
2023-01-29T14:32:51.878Z,37.77
2023-01-29T14:35:30.559Z,34.03
2023-01-29T14:38:03.403Z,39.03
2023-01-29T14:40:32.254Z,39.43
2023-01-29T14:43:08.612Z,33.93
2023-01-29T14:45:38.782Z,45.90
2023-01-29T14:48:12.034Z,41.53
2023-01-29T14:50:53.580Z,46.87
2023-01-29T14:53:58.505Z,37.77
2023-01-29T14:56:42.056Z,40.60
2023-01-29T14:59:20.677Z,36.40
2023-01-29T15:02:03.550Z,39.00
2023-01-29T15:04:48.045Z,37.50
2023-01-29T15:07:47.379Z,37.77
2023-01-29T15:10:44.397Z,31.83
2023-01-29T15:13:30.654Z,32.60
2023-01-29T15:16:09.721Z,79.43
2023-01-29T15:18:42.927Z,39.10
2023-01-29T15:21:20.197Z,37.70
2023-01-29T15:23:48.876Z,35.53
2023-01-29T15:26:22.079Z,38.20
2023-01-29T15:29:04.314Z,38.67
2023-01-29T15:31:32.602Z,36.20
2023-01-29T15:34:06.969Z,39.87
2023-01-29T15:36:34.520Z,34.90
2023-01-29T15:39:22.625Z,35.03
2023-01-29T15:41:52.241Z,37.80
2023-01-29T15:44:22.448Z,33.37
2023-01-29T15:46:57.028Z,38.77
2023-01-29T15:49:32.818Z,35.23
2023-01-29T15:52:05.672Z,36.63
2023-01-29T15:54:35.005Z,36.03
2023-01-29T15:57:03.358Z,37.43
2023-01-29T15:59:35.799Z,35.73
2023-01-29T16:02:41.573Z,37.33
2023-01-29T16:05:23.037Z,38.53
2023-01-29T16:07:52.013Z,35.57
2023-01-29T16:10:29.199Z,37.70
2023-01-29T16:12:57.157Z,36.30
2023-01-29T16:15:34.055Z,36.67
2023-01-29T16:18:05.130Z,39.00
2023-01-29T16:20:46.140Z,37.43
2023-01-29T16:23:28.252Z,43.00
2023-01-29T16:26:02.441Z,38.67
2023-01-29T16:28:30.234Z,39.90
2023-01-29T16:31:00.613Z,41.37
2023-01-29T16:33:36.611Z,40.83
2023-01-29T16:36:18.783Z,37.10
2023-01-29T16:39:05.460Z,44.30
2023-01-29T16:41:38.303Z,42.13
2023-01-29T16:44:34.784Z,39.33
2023-01-29T16:47:38.874Z,44.60
2023-01-29T16:50:40.733Z,50.00
2023-01-29T16:53:21.457Z,41.80
2023-01-29T16:55:50.836Z,41.83
2023-01-29T16:58:21.939Z,38.90
2023-01-29T17:00:55.379Z,42.17
2023-01-29T17:03:26.477Z,40.10
2023-01-29T17:05:54.370Z,42.67
2023-01-29T17:08:34.494Z,46.67
2023-01-29T17:11:02.932Z,43.80
2023-01-29T17:13:42.676Z,41.50
2023-01-29T17:16:37.506Z,42.57
2023-01-29T17:19:18.476Z,42.57
2023-01-29T17:21:46.329Z,39.43
2023-01-29T17:24:13.367Z,42.80
2023-01-29T17:26:40.700Z,40.93
2023-01-29T17:29:21.527Z,43.53
2023-01-29T17:31:48.555Z,43.67
2023-01-29T17:34:16.733Z,43.87
2023-01-29T17:36:44.691Z,40.50
2023-01-29T17:39:23.531Z,43.37
2023-01-29T17:41:53.711Z,41.90
2023-01-29T17:44:22.043Z,43.37
2023-01-29T17:46:49.716Z,41.20
2023-01-29T17:49:29.432Z,43.07
2023-01-29T17:51:57.342Z,37.73
2023-01-29T17:54:25.707Z,40.20
2023-01-29T17:56:53.748Z,41.17
2023-01-29T17:59:27.681Z,35.17
2023-01-29T18:01:54.726Z,39.73
2023-01-29T18:04:22.083Z,37.40
2023-01-29T18:06:51.441Z,40.07
2023-01-29T18:09:21.362Z,37.93
2023-01-29T18:11:49.543Z,38.67
2023-01-29T18:14:16.624Z,40.87
2023-01-29T18:16:45.379Z,39.17
2023-01-29T18:19:27.311Z,39.63
2023-01-29T18:21:54.665Z,41.20
2023-01-29T18:24:21.682Z,37.53
2023-01-29T18:26:51.281Z,41.03
2023-01-29T18:29:18.274Z,45.80
2023-01-29T18:31:48.210Z,45.40
2023-01-29T18:34:15.208Z,40.97
2023-01-29T18:36:46.654Z,45.23
2023-01-29T18:39:15.285Z,47.23
2023-01-29T18:41:42.643Z,46.00
2023-01-29T18:44:11.657Z,43.43
2023-01-29T18:46:38.736Z,45.00
2023-01-29T18:49:05.833Z,43.77
2023-01-29T18:51:32.853Z,45.97
2023-01-29T18:53:59.880Z,47.97
2023-01-29T18:56:26.846Z,40.17
2023-01-29T18:58:56.944Z,41.37
2023-01-29T19:01:24.429Z,48.47
2023-01-29T19:03:52.082Z,42.20
2023-01-29T19:06:19.141Z,41.50
2023-01-29T19:08:47.399Z,43.10
2023-01-29T19:11:14.523Z,44.40
2023-01-29T19:13:42.585Z,38.50
2023-01-29T19:16:12.043Z,36.60
2023-01-29T19:18:39.430Z,41.27
2023-01-29T19:21:12.996Z,40.60
2023-01-29T19:23:42.282Z,46.13
2023-01-29T19:26:10.093Z,43.20
2023-01-29T19:28:37.127Z,42.80
2023-01-29T19:31:05.258Z,41.17
2023-01-29T19:33:32.249Z,40.40
2023-01-29T19:36:00.046Z,45.80
2023-01-29T19:38:27.959Z,52.07
2023-01-29T19:40:57.524Z,43.83
2023-01-29T19:43:24.478Z,44.23
2023-01-29T19:45:59.039Z,47.83
2023-01-29T19:48:26.959Z,45.17
2023-01-29T19:51:04.377Z,47.73
2023-01-29T19:53:31.807Z,47.80
2023-01-29T19:56:05.660Z,47.00
2023-01-29T19:58:36.318Z,46.67
2023-01-29T20:01:12.686Z,49.00
2023-01-29T20:03:42.045Z,44.03
2023-01-29T20:06:09.718Z,46.57
2023-01-29T20:08:36.896Z,46.70
2023-01-29T20:11:05.567Z,45.43
2023-01-29T20:13:33.514Z,47.13
2023-01-29T20:16:05.578Z,44.13
2023-01-29T20:18:32.749Z,43.87
2023-01-29T20:20:59.959Z,49.87
2023-01-29T20:23:37.227Z,48.53
2023-01-29T20:26:11.710Z,46.20
2023-01-29T20:28:39.472Z,48.23
2023-01-29T20:31:07.576Z,45.83
2023-01-29T20:33:37.047Z,46.07
2023-01-29T20:36:10.078Z,43.97
2023-01-29T20:38:37.455Z,45.30
2023-01-29T20:41:12.819Z,47.83
2023-01-29T20:43:40.452Z,47.83
2023-01-29T20:46:08.806Z,46.57
2023-01-29T20:48:36.034Z,45.77
2023-01-29T20:51:13.112Z,47.97
2023-01-29T20:53:43.265Z,48.90
2023-01-29T20:56:11.186Z,45.53
2023-01-29T20:58:41.283Z,46.10
2023-01-29T21:01:15.752Z,49.67
2023-01-29T21:03:43.422Z,53.27
2023-01-29T21:06:11.440Z,46.53
2023-01-29T21:08:39.967Z,44.60
2023-01-29T21:11:08.630Z,46.83
2023-01-29T21:13:35.850Z,50.83
2023-01-29T21:16:04.379Z,52.13
2023-01-29T21:18:32.341Z,50.57
2023-01-29T21:20:59.354Z,48.50
2023-01-29T21:23:26.308Z,48.23
2023-01-29T21:25:53.300Z,48.77
2023-01-29T21:28:20.294Z,48.60
2023-01-29T21:30:47.949Z,55.87
2023-01-29T21:33:14.917Z,57.40
2023-01-29T21:35:41.900Z,49.00
2023-01-29T21:38:09.331Z,54.87
2023-01-29T21:40:36.331Z,55.60
2023-01-29T21:43:13.295Z,51.03
2023-01-29T21:45:41.138Z,57.10
2023-01-29T21:48:10.109Z,50.93
2023-01-29T21:50:37.685Z,55.23
2023-01-29T21:53:04.889Z,53.57
2023-01-29T21:55:32.753Z,56.43
2023-01-29T21:58:00.615Z,53.57
2023-01-29T22:00:28.034Z,52.40
2023-01-29T22:02:55.861Z,57.10
2023-01-29T22:05:22.910Z,53.30
2023-01-29T22:07:50.173Z,54.77
2023-01-29T22:10:19.159Z,56.80
2023-01-29T22:12:47.412Z,52.13
2023-01-29T22:15:15.715Z,53.33
2023-01-29T22:17:43.845Z,50.73
2023-01-29T22:20:13.849Z,57.23
2023-01-29T22:22:40.995Z,55.30
2023-01-29T22:25:09.460Z,53.33
2023-01-29T22:27:36.861Z,55.20
2023-01-29T22:30:05.621Z,56.43
2023-01-29T22:32:33.375Z,51.00
2023-01-29T22:35:00.386Z,59.90
2023-01-29T22:37:27.362Z,58.17
2023-01-29T22:39:54.368Z,55.73
2023-01-29T22:42:21.473Z,51.90
2023-01-29T22:44:48.932Z,53.53
2023-01-29T22:47:16.252Z,58.73
2023-01-29T22:49:45.519Z,57.30
2023-01-29T22:52:12.685Z,60.30
2023-01-29T22:54:42.275Z,58.33
2023-01-29T22:57:14.479Z,62.80
2023-01-29T22:59:41.480Z,59.63
2023-01-29T23:02:09.355Z,60.53
2023-01-29T23:04:36.636Z,65.03
2023-01-29T23:07:04.152Z,60.60
2023-01-29T23:09:31.159Z,67.23
2023-01-29T23:11:58.247Z,59.37
2023-01-29T23:14:25.264Z,60.57
2023-01-29T23:16:52.292Z,65.10
2023-01-29T23:19:20.206Z,70.87
2023-01-29T23:21:47.186Z,65.50
2023-01-29T23:24:14.573Z,61.50
2023-01-29T23:27:00.608Z,62.13
2023-01-29T23:29:27.559Z,60.90
2023-01-29T23:31:54.557Z,61.53
2023-01-29T23:34:21.597Z,61.33
2023-01-29T23:36:48.716Z,65.43
2023-01-29T23:39:15.716Z,57.03
2023-01-29T23:41:43.112Z,60.40
2023-01-29T23:44:10.227Z,57.70
2023-01-29T23:46:37.214Z,57.50
2023-01-29T23:49:04.278Z,56.87
2023-01-29T23:51:31.450Z,59.63
2023-01-29T23:53:58.674Z,50.50
2023-01-29T23:56:25.869Z,58.70
2023-01-29T23:58:54.869Z,57.40
